sensor_id;sensor_type;location;lat;lon;timestamp;P1;durP1;ratioP1;P2;durP2;ratioP2
1719;SDS011;857;52.872;9.692;2022-09-09T00:01:41;6.00;;;5.20;;
1719;SDS011;857;52.872;9.692;2022-09-09T00:04:13;5.73;;;5.13;;
1719;SDS011;857;52.872;9.692;2022-09-09T00:06:43;5.53;;;5.00;;
1719;SDS011;857;52.872;9.692;2022-09-09T00:09:14;8.10;;;5.60;;
1719;SDS011;857;52.872;9.692;2022-09-09T00:11:43;5.50;;;4.87;;
1719;SDS011;857;52.872;9.692;2022-09-09T00:14:15;5.17;;;4.67;;
1719;SDS011;857;52.872;9.692;2022-09-09T00:16:46;7.10;;;6.27;;
1719;SDS011;857;52.872;9.692;2022-09-09T00:19:20;5.83;;;5.07;;
1719;SDS011;857;52.872;9.692;2022-09-09T00:21:51;6.93;;;6.17;;
1719;SDS011;857;52.872;9.692;2022-09-09T00:24:24;9.23;;;7.07;;
1719;SDS011;857;52.872;9.692;2022-09-09T00:26:56;8.10;;;7.00;;
1719;SDS011;857;52.872;9.692;2022-09-09T00:29:28;7.83;;;6.93;;
1719;SDS011;857;52.872;9.692;2022-09-09T00:32:09;6.30;;;5.70;;
1719;SDS011;857;52.872;9.692;2022-09-09T00:34:40;6.80;;;6.10;;
1719;SDS011;857;52.872;9.692;2022-09-09T00:37:10;9.00;;;7.50;;
1719;SDS011;857;52.872;9.692;2022-09-09T00:39:39;7.53;;;6.73;;
1719;SDS011;857;52.872;9.692;2022-09-09T00:42:12;8.30;;;6.90;;
1719;SDS011;857;52.872;9.692;2022-09-09T00:44:46;5.53;;;5.03;;
1719;SDS011;857;52.872;9.692;2022-09-09T00:47:21;6.63;;;6.00;;
1719;SDS011;857;52.872;9.692;2022-09-09T00:49:59;7.50;;;6.70;;
1719;SDS011;857;52.872;9.692;2022-09-09T00:52:31;7.63;;;6.93;;
1719;SDS011;857;52.872;9.692;2022-09-09T00:55:06;4.00;;;3.70;;
1719;SDS011;857;52.872;9.692;2022-09-09T00:57:35;6.40;;;4.73;;
1719;SDS011;857;52.872;9.692;2022-09-09T01:00:16;8.10;;;5.87;;
1719;SDS011;857;52.872;9.692;2022-09-09T01:02:47;6.73;;;5.70;;
1719;SDS011;857;52.872;9.692;2022-09-09T01:05:20;5.90;;;5.10;;
1719;SDS011;857;52.872;9.692;2022-09-09T01:07:51;6.03;;;5.47;;
1719;SDS011;857;52.872;9.692;2022-09-09T01:10:21;6.03;;;5.07;;
1719;SDS011;857;52.872;9.692;2022-09-09T01:12:53;5.20;;;4.70;;
1719;SDS011;857;52.872;9.692;2022-09-09T01:15:24;9.17;;;6.00;;
1719;SDS011;857;52.872;9.692;2022-09-09T01:17:55;7.10;;;5.80;;
1719;SDS011;857;52.872;9.692;2022-09-09T01:20:29;6.83;;;5.00;;
1719;SDS011;857;52.872;9.692;2022-09-09T01:23:08;6.20;;;5.30;;
1719;SDS011;857;52.872;9.692;2022-09-09T01:26:02;4.87;;;4.37;;
1719;SDS011;857;52.872;9.692;2022-09-09T01:28:32;5.23;;;4.63;;
1719;SDS011;857;52.872;9.692;2022-09-09T01:31:06;5.47;;;3.83;;
1719;SDS011;857;52.872;9.692;2022-09-09T01:33:41;5.33;;;4.67;;
1719;SDS011;857;52.872;9.692;2022-09-09T01:36:09;7.33;;;5.07;;
1719;SDS011;857;52.872;9.692;2022-09-09T01:38:48;5.80;;;4.80;;
1719;SDS011;857;52.872;9.692;2022-09-09T01:41:19;3.27;;;2.97;;
1719;SDS011;857;52.872;9.692;2022-09-09T01:43:52;4.40;;;4.00;;
1719;SDS011;857;52.872;9.692;2022-09-09T01:46:21;6.00;;;4.40;;
1719;SDS011;857;52.872;9.692;2022-09-09T01:48:50;5.13;;;4.37;;
1719;SDS011;857;52.872;9.692;2022-09-09T01:51:18;5.20;;;4.40;;
1719;SDS011;857;52.872;9.692;2022-09-09T01:53:47;4.07;;;3.67;;
1719;SDS011;857;52.872;9.692;2022-09-09T01:56:23;3.50;;;3.20;;
1719;SDS011;857;52.872;9.692;2022-09-09T01:58:57;3.70;;;3.40;;
1719;SDS011;857;52.872;9.692;2022-09-09T02:01:32;5.10;;;4.60;;
1719;SDS011;857;52.872;9.692;2022-09-09T02:04:03;6.40;;;4.60;;
1719;SDS011;857;52.872;9.692;2022-09-09T02:06:33;5.23;;;4.73;;
1719;SDS011;857;52.872;9.692;2022-09-09T02:09:14;4.20;;;3.80;;
1719;SDS011;857;52.872;9.692;2022-09-09T02:11:44;3.20;;;2.90;;
1719;SDS011;857;52.872;9.692;2022-09-09T02:14:22;6.43;;;5.20;;
1719;SDS011;857;52.872;9.692;2022-09-09T02:16:52;5.70;;;5.20;;
1719;SDS011;857;52.872;9.692;2022-09-09T02:19:28;4.33;;;3.93;;
1719;SDS011;857;52.872;9.692;2022-09-09T02:22:11;5.77;;;5.00;;
1719;SDS011;857;52.872;9.692;2022-09-09T02:24:39;4.40;;;3.97;;
1719;SDS011;857;52.872;9.692;2022-09-09T02:27:20;5.27;;;4.77;;
1719;SDS011;857;52.872;9.692;2022-09-09T02:29:50;4.23;;;3.87;;
1719;SDS011;857;52.872;9.692;2022-09-09T02:32:28;6.13;;;4.90;;
1719;SDS011;857;52.872;9.692;2022-09-09T02:34:59;5.10;;;4.60;;
1719;SDS011;857;52.872;9.692;2022-09-09T02:37:29;3.63;;;3.33;;
1719;SDS011;857;52.872;9.692;2022-09-09T02:40:01;2.70;;;2.50;;
1719;SDS011;857;52.872;9.692;2022-09-09T02:42:30;2.63;;;2.43;;
1719;SDS011;857;52.872;9.692;2022-09-09T02:45:00;2.60;;;2.40;;
1719;SDS011;857;52.872;9.692;2022-09-09T02:47:29;4.30;;;3.90;;
1719;SDS011;857;52.872;9.692;2022-09-09T02:50:08;2.70;;;2.50;;
1719;SDS011;857;52.872;9.692;2022-09-09T02:52:40;4.80;;;4.40;;
1719;SDS011;857;52.872;9.692;2022-09-09T02:55:11;4.73;;;4.33;;
1719;SDS011;857;52.872;9.692;2022-09-09T02:57:43;3.90;;;3.53;;
1719;SDS011;857;52.872;9.692;2022-09-09T03:00:14;4.27;;;3.70;;
1719;SDS011;857;52.872;9.692;2022-09-09T03:02:42;3.70;;;3.13;;
1719;SDS011;857;52.872;9.692;2022-09-09T03:05:10;3.90;;;3.57;;
1719;SDS011;857;52.872;9.692;2022-09-09T03:07:39;2.70;;;2.50;;
1719;SDS011;857;52.872;9.692;2022-09-09T03:10:08;2.70;;;2.50;;
1719;SDS011;857;52.872;9.692;2022-09-09T03:12:36;4.00;;;3.70;;
1719;SDS011;857;52.872;9.692;2022-09-09T03:15:08;6.07;;;4.87;;
1719;SDS011;857;52.872;9.692;2022-09-09T03:17:37;2.40;;;2.20;;
1719;SDS011;857;52.872;9.692;2022-09-09T03:20:05;5.37;;;4.67;;
1719;SDS011;857;52.872;9.692;2022-09-09T03:22:35;5.47;;;4.37;;
1719;SDS011;857;52.872;9.692;2022-09-09T03:25:03;4.83;;;4.00;;
1719;SDS011;857;52.872;9.692;2022-09-09T03:27:33;2.50;;;2.30;;
1719;SDS011;857;52.872;9.692;2022-09-09T03:30:03;4.70;;;4.20;;
1719;SDS011;857;52.872;9.692;2022-09-09T03:32:32;10.13;;;5.13;;
1719;SDS011;857;52.872;9.692;2022-09-09T03:35:00;4.37;;;3.97;;
1719;SDS011;857;52.872;9.692;2022-09-09T03:37:27;3.30;;;3.00;;
1719;SDS011;857;52.872;9.692;2022-09-09T03:39:55;4.03;;;3.53;;
1719;SDS011;857;52.872;9.692;2022-09-09T03:42:23;3.60;;;3.30;;
1719;SDS011;857;52.872;9.692;2022-09-09T03:44:53;3.93;;;3.33;;
1719;SDS011;857;52.872;9.692;2022-09-09T03:47:24;2.77;;;2.57;;
1719;SDS011;857;52.872;9.692;2022-09-09T03:49:58;5.77;;;3.80;;
1719;SDS011;857;52.872;9.692;2022-09-09T03:52:26;5.00;;;4.40;;
1719;SDS011;857;52.872;9.692;2022-09-09T03:54:55;3.17;;;2.80;;
1719;SDS011;857;52.872;9.692;2022-09-09T03:57:23;3.97;;;3.57;;
1719;SDS011;857;52.872;9.692;2022-09-09T03:59:50;2.50;;;2.30;;
1719;SDS011;857;52.872;9.692;2022-09-09T04:02:18;3.47;;;3.13;;
1719;SDS011;857;52.872;9.692;2022-09-09T04:04:47;4.53;;;4.13;;
1719;SDS011;857;52.872;9.692;2022-09-09T04:07:16;3.63;;;3.33;;
1719;SDS011;857;52.872;9.692;2022-09-09T04:09:44;3.00;;;2.70;;
1719;SDS011;857;52.872;9.692;2022-09-09T04:12:13;4.10;;;2.83;;
1719;SDS011;857;52.872;9.692;2022-09-09T04:14:42;2.77;;;2.57;;
1719;SDS011;857;52.872;9.692;2022-09-09T04:17:10;2.40;;;2.20;;
1719;SDS011;857;52.872;9.692;2022-09-09T04:19:37;3.73;;;3.03;;
1719;SDS011;857;52.872;9.692;2022-09-09T04:22:05;3.80;;;3.40;;
1719;SDS011;857;52.872;9.692;2022-09-09T04:24:34;1.90;;;1.80;;
1719;SDS011;857;52.872;9.692;2022-09-09T04:27:02;3.43;;;3.13;;
1719;SDS011;857;52.872;9.692;2022-09-09T04:29:32;2.30;;;2.20;;
1719;SDS011;857;52.872;9.692;2022-09-09T04:32:00;2.73;;;2.53;;
1719;SDS011;857;52.872;9.692;2022-09-09T04:34:29;3.60;;;3.20;;
1719;SDS011;857;52.872;9.692;2022-09-09T04:36:57;3.07;;;2.73;;
1719;SDS011;857;52.872;9.692;2022-09-09T04:39:26;3.90;;;2.80;;
1719;SDS011;857;52.872;9.692;2022-09-09T04:42:00;4.43;;;3.23;;
1719;SDS011;857;52.872;9.692;2022-09-09T04:44:28;2.00;;;1.90;;
1719;SDS011;857;52.872;9.692;2022-09-09T04:46:56;3.40;;;3.10;;
1719;SDS011;857;52.872;9.692;2022-09-09T04:49:24;2.90;;;2.70;;
1719;SDS011;857;52.872;9.692;2022-09-09T04:51:53;7.70;;;2.80;;
1719;SDS011;857;52.872;9.692;2022-09-09T04:54:22;2.80;;;2.60;;
1719;SDS011;857;52.872;9.692;2022-09-09T04:56:50;2.33;;;2.13;;
1719;SDS011;857;52.872;9.692;2022-09-09T04:59:19;1.97;;;1.87;;
1719;SDS011;857;52.872;9.692;2022-09-09T05:01:51;2.50;;;2.30;;
1719;SDS011;857;52.872;9.692;2022-09-09T05:04:20;2.67;;;2.00;;
1719;SDS011;857;52.872;9.692;2022-09-09T05:06:48;4.30;;;3.97;;
1719;SDS011;857;52.872;9.692;2022-09-09T05:09:16;4.07;;;3.67;;
1719;SDS011;857;52.872;9.692;2022-09-09T05:11:44;2.40;;;2.20;;
1719;SDS011;857;52.872;9.692;2022-09-09T05:14:23;5.50;;;2.50;;
1719;SDS011;857;52.872;9.692;2022-09-09T05:16:52;3.17;;;2.97;;
1719;SDS011;857;52.872;9.692;2022-09-09T05:19:21;2.60;;;2.40;;
1719;SDS011;857;52.872;9.692;2022-09-09T05:21:51;2.53;;;2.33;;
1719;SDS011;857;52.872;9.692;2022-09-09T05:24:23;2.57;;;2.37;;
1719;SDS011;857;52.872;9.692;2022-09-09T05:26:54;3.37;;;2.20;;
1719;SDS011;857;52.872;9.692;2022-09-09T05:29:26;2.53;;;2.33;;
1719;SDS011;857;52.872;9.692;2022-09-09T05:31:55;3.43;;;2.20;;
1719;SDS011;857;52.872;9.692;2022-09-09T05:34:24;2.30;;;1.73;;
1719;SDS011;857;52.872;9.692;2022-09-09T05:36:52;2.20;;;2.00;;
1719;SDS011;857;52.872;9.692;2022-09-09T05:39:21;2.90;;;2.70;;
1719;SDS011;857;52.872;9.692;2022-09-09T05:41:49;3.70;;;3.10;;
1719;SDS011;857;52.872;9.692;2022-09-09T05:44:17;2.60;;;2.40;;
1719;SDS011;857;52.872;9.692;2022-09-09T05:46:46;1.97;;;1.83;;
1719;SDS011;857;52.872;9.692;2022-09-09T05:49:15;2.30;;;2.10;;
1719;SDS011;857;52.872;9.692;2022-09-09T05:51:43;2.57;;;2.37;;
1719;SDS011;857;52.872;9.692;2022-09-09T05:54:13;2.33;;;2.13;;
1719;SDS011;857;52.872;9.692;2022-09-09T05:56:44;1.87;;;1.77;;
1719;SDS011;857;52.872;9.692;2022-09-09T05:59:12;2.20;;;2.10;;
1719;SDS011;857;52.872;9.692;2022-09-09T06:01:40;1.87;;;1.73;;
1719;SDS011;857;52.872;9.692;2022-09-09T06:04:18;2.30;;;2.10;;
1719;SDS011;857;52.872;9.692;2022-09-09T06:06:50;2.63;;;2.43;;
1719;SDS011;857;52.872;9.692;2022-09-09T06:09:20;2.67;;;2.10;;
1719;SDS011;857;52.872;9.692;2022-09-09T06:11:49;4.67;;;2.80;;
1719;SDS011;857;52.872;9.692;2022-09-09T06:14:16;2.50;;;2.30;;
1719;SDS011;857;52.872;9.692;2022-09-09T06:16:46;4.50;;;3.17;;
1719;SDS011;857;52.872;9.692;2022-09-09T06:19:19;3.40;;;2.77;;
1719;SDS011;857;52.872;9.692;2022-09-09T06:21:47;3.10;;;2.90;;
1719;SDS011;857;52.872;9.692;2022-09-09T06:24:16;3.10;;;2.40;;
1719;SDS011;857;52.872;9.692;2022-09-09T06:26:45;2.80;;;2.60;;
1719;SDS011;857;52.872;9.692;2022-09-09T06:29:18;2.10;;;1.83;;
1719;SDS011;857;52.872;9.692;2022-09-09T06:31:46;5.90;;;3.53;;
1719;SDS011;857;52.872;9.692;2022-09-09T06:34:20;1.97;;;1.87;;
1719;SDS011;857;52.872;9.692;2022-09-09T06:36:56;2.10;;;1.90;;
1719;SDS011;857;52.872;9.692;2022-09-09T06:39:25;2.73;;;2.27;;
1719;SDS011;857;52.872;9.692;2022-09-09T06:41:54;1.60;;;1.50;;
1719;SDS011;857;52.872;9.692;2022-09-09T06:44:42;4.50;;;3.10;;
1719;SDS011;857;52.872;9.692;2022-09-09T06:47:16;2.00;;;1.90;;
1719;SDS011;857;52.872;9.692;2022-09-09T06:49:45;2.53;;;2.33;;
1719;SDS011;857;52.872;9.692;2022-09-09T06:52:12;1.90;;;1.80;;
1719;SDS011;857;52.872;9.692;2022-09-09T06:54:40;2.47;;;2.27;;
1719;SDS011;857;52.872;9.692;2022-09-09T06:57:08;2.10;;;1.90;;
1719;SDS011;857;52.872;9.692;2022-09-09T06:59:36;1.80;;;1.70;;
1719;SDS011;857;52.872;9.692;2022-09-09T07:02:04;2.00;;;1.80;;
1719;SDS011;857;52.872;9.692;2022-09-09T07:04:32;1.77;;;1.67;;
1719;SDS011;857;52.872;9.692;2022-09-09T07:07:01;1.60;;;1.50;;
1719;SDS011;857;52.872;9.692;2022-09-09T07:09:28;2.73;;;2.53;;
1719;SDS011;857;52.872;9.692;2022-09-09T07:11:57;4.53;;;2.80;;
1719;SDS011;857;52.872;9.692;2022-09-09T07:14:28;2.27;;;2.10;;
1719;SDS011;857;52.872;9.692;2022-09-09T07:17:00;2.20;;;1.53;;
1719;SDS011;857;52.872;9.692;2022-09-09T07:19:32;1.67;;;1.57;;
1719;SDS011;857;52.872;9.692;2022-09-09T07:22:03;3.50;;;2.50;;
1719;SDS011;857;52.872;9.692;2022-09-09T07:24:32;2.33;;;2.07;;
1719;SDS011;857;52.872;9.692;2022-09-09T07:27:00;1.87;;;1.77;;
1719;SDS011;857;52.872;9.692;2022-09-09T07:29:29;1.63;;;1.53;;
1719;SDS011;857;52.872;9.692;2022-09-09T07:31:57;2.40;;;2.20;;
1719;SDS011;857;52.872;9.692;2022-09-09T07:34:30;1.87;;;1.70;;
1719;SDS011;857;52.872;9.692;2022-09-09T07:36:58;1.77;;;1.67;;
1719;SDS011;857;52.872;9.692;2022-09-09T07:39:27;1.90;;;1.80;;
1719;SDS011;857;52.872;9.692;2022-09-09T07:41:55;1.63;;;1.53;;
1719;SDS011;857;52.872;9.692;2022-09-09T07:44:24;2.20;;;2.00;;
1719;SDS011;857;52.872;9.692;2022-09-09T07:47:05;1.90;;;1.80;;
1719;SDS011;857;52.872;9.692;2022-09-09T07:49:38;1.80;;;1.70;;
1719;SDS011;857;52.872;9.692;2022-09-09T07:52:07;3.67;;;3.37;;
1719;SDS011;857;52.872;9.692;2022-09-09T07:54:40;2.53;;;2.10;;
1719;SDS011;857;52.872;9.692;2022-09-09T07:57:09;7.70;;;3.00;;
1719;SDS011;857;52.872;9.692;2022-09-09T07:59:38;4.13;;;2.43;;
1719;SDS011;857;52.872;9.692;2022-09-09T08:02:08;5.13;;;3.10;;
1719;SDS011;857;52.872;9.692;2022-09-09T08:04:36;3.73;;;2.70;;
1719;SDS011;857;52.872;9.692;2022-09-09T08:07:04;7.03;;;2.70;;
1719;SDS011;857;52.872;9.692;2022-09-09T08:09:40;3.23;;;2.93;;
1719;SDS011;857;52.872;9.692;2022-09-09T08:12:16;1.73;;;1.63;;
1719;SDS011;857;52.872;9.692;2022-09-09T08:14:43;1.67;;;1.57;;
1719;SDS011;857;52.872;9.692;2022-09-09T08:17:11;4.47;;;3.37;;
1719;SDS011;857;52.872;9.692;2022-09-09T08:19:39;5.03;;;2.90;;
1719;SDS011;857;52.872;9.692;2022-09-09T08:22:12;5.70;;;3.40;;
1719;SDS011;857;52.872;9.692;2022-09-09T08:24:41;4.50;;;3.70;;
1719;SDS011;857;52.872;9.692;2022-09-09T08:27:09;2.60;;;2.40;;
1719;SDS011;857;52.872;9.692;2022-09-09T08:29:37;1.70;;;1.60;;
1719;SDS011;857;52.872;9.692;2022-09-09T08:32:05;2.20;;;2.00;;
1719;SDS011;857;52.872;9.692;2022-09-09T08:34:35;5.27;;;3.30;;
1719;SDS011;857;52.872;9.692;2022-09-09T08:37:07;3.33;;;2.20;;
1719;SDS011;857;52.872;9.692;2022-09-09T08:39:38;1.50;;;1.40;;
1719;SDS011;857;52.872;9.692;2022-09-09T08:42:29;7.13;;;3.83;;
1719;SDS011;857;52.872;9.692;2022-09-09T08:47:49;3.43;;;3.13;;
1719;SDS011;857;52.872;9.692;2022-09-09T08:50:23;3.07;;;2.80;;
1719;SDS011;857;52.872;9.692;2022-09-09T08:53:00;1.87;;;1.77;;
1719;SDS011;857;52.872;9.692;2022-09-09T08:55:34;3.73;;;2.30;;
1719;SDS011;857;52.872;9.692;2022-09-09T08:58:12;4.67;;;2.90;;
1719;SDS011;857;52.872;9.692;2022-09-09T09:00:44;3.53;;;2.80;;
1719;SDS011;857;52.872;9.692;2022-09-09T09:03:15;2.10;;;2.00;;
1719;SDS011;857;52.872;9.692;2022-09-09T09:05:47;3.20;;;2.60;;
1719;SDS011;857;52.872;9.692;2022-09-09T09:08:20;1.70;;;1.50;;
1719;SDS011;857;52.872;9.692;2022-09-09T09:10:53;1.57;;;1.47;;
1719;SDS011;857;52.872;9.692;2022-09-09T09:13:26;5.40;;;3.37;;
1719;SDS011;857;52.872;9.692;2022-09-09T09:16:00;2.53;;;1.40;;
1719;SDS011;857;52.872;9.692;2022-09-09T09:18:31;1.93;;;1.80;;
1719;SDS011;857;52.872;9.692;2022-09-09T09:21:01;2.40;;;2.10;;
1719;SDS011;857;52.872;9.692;2022-09-09T09:23:33;4.70;;;3.37;;
1719;SDS011;857;52.872;9.692;2022-09-09T09:26:06;2.30;;;1.73;;
1719;SDS011;857;52.872;9.692;2022-09-09T09:28:36;3.20;;;2.13;;
1719;SDS011;857;52.872;9.692;2022-09-09T09:31:11;1.60;;;1.20;;
1719;SDS011;857;52.872;9.692;2022-09-09T09:33:45;2.23;;;2.03;;
1719;SDS011;857;52.872;9.692;2022-09-09T09:36:14;4.13;;;3.13;;
1719;SDS011;857;52.872;9.692;2022-09-09T09:38:53;4.50;;;2.87;;
1719;SDS011;857;52.872;9.692;2022-09-09T09:41:28;1.50;;;1.40;;
1719;SDS011;857;52.872;9.692;2022-09-09T09:43:58;1.73;;;1.63;;
1719;SDS011;857;52.872;9.692;2022-09-09T09:46:28;5.00;;;3.60;;
1719;SDS011;857;52.872;9.692;2022-09-09T09:49:05;3.40;;;2.93;;
1719;SDS011;857;52.872;9.692;2022-09-09T09:51:35;1.80;;;1.50;;
1719;SDS011;857;52.872;9.692;2022-09-09T09:54:13;4.27;;;3.40;;
1719;SDS011;857;52.872;9.692;2022-09-09T09:56:45;1.97;;;1.87;;
1719;SDS011;857;52.872;9.692;2022-09-09T09:59:33;4.00;;;3.60;;
1719;SDS011;857;52.872;9.692;2022-09-09T10:02:15;2.73;;;2.20;;
1719;SDS011;857;52.872;9.692;2022-09-09T10:04:45;4.30;;;3.60;;
1719;SDS011;857;52.872;9.692;2022-09-09T10:07:17;3.33;;;2.70;;
1719;SDS011;857;52.872;9.692;2022-09-09T10:09:45;1.50;;;1.40;;
1719;SDS011;857;52.872;9.692;2022-09-09T10:12:16;3.60;;;3.30;;
1719;SDS011;857;52.872;9.692;2022-09-09T10:14:49;2.67;;;2.47;;
1719;SDS011;857;52.872;9.692;2022-09-09T10:17:23;4.60;;;3.40;;
1719;SDS011;857;52.872;9.692;2022-09-09T10:19:55;4.93;;;2.90;;
1719;SDS011;857;52.872;9.692;2022-09-09T10:22:26;5.57;;;3.17;;
1719;SDS011;857;52.872;9.692;2022-09-09T10:25:03;3.70;;;3.40;;
1719;SDS011;857;52.872;9.692;2022-09-09T10:27:36;7.50;;;3.67;;
1719;SDS011;857;52.872;9.692;2022-09-09T10:30:11;3.40;;;2.90;;
1719;SDS011;857;52.872;9.692;2022-09-09T10:32:40;1.40;;;1.30;;
1719;SDS011;857;52.872;9.692;2022-09-09T10:35:10;6.10;;;3.33;;
1719;SDS011;857;52.872;9.692;2022-09-09T10:37:48;6.50;;;3.20;;
1719;SDS011;857;52.872;9.692;2022-09-09T10:40:20;5.60;;;3.03;;
1719;SDS011;857;52.872;9.692;2022-09-09T10:42:52;1.87;;;1.60;;
1719;SDS011;857;52.872;9.692;2022-09-09T10:45:23;3.40;;;3.10;;
1719;SDS011;857;52.872;9.692;2022-09-09T10:48:02;5.33;;;3.70;;
1719;SDS011;857;52.872;9.692;2022-09-09T10:50:36;1.30;;;1.20;;
1719;SDS011;857;52.872;9.692;2022-09-09T10:53:09;2.20;;;1.70;;
1719;SDS011;857;52.872;9.692;2022-09-09T10:55:41;5.33;;;4.50;;
1719;SDS011;857;52.872;9.692;2022-09-09T10:58:13;1.70;;;1.60;;
1719;SDS011;857;52.872;9.692;2022-09-09T11:00:44;3.63;;;3.20;;
1719;SDS011;857;52.872;9.692;2022-09-09T11:03:15;2.73;;;2.40;;
1719;SDS011;857;52.872;9.692;2022-09-09T11:05:45;1.57;;;1.47;;
1719;SDS011;857;52.872;9.692;2022-09-09T11:08:15;4.43;;;4.13;;
1719;SDS011;857;52.872;9.692;2022-09-09T11:10:45;2.30;;;1.90;;
1719;SDS011;857;52.872;9.692;2022-09-09T11:13:18;3.80;;;2.40;;
1719;SDS011;857;52.872;9.692;2022-09-09T11:15:50;2.03;;;1.40;;
1719;SDS011;857;52.872;9.692;2022-09-09T11:18:19;1.80;;;1.70;;
1719;SDS011;857;52.872;9.692;2022-09-09T11:20:49;3.60;;;3.30;;
1719;SDS011;857;52.872;9.692;2022-09-09T11:23:18;3.80;;;3.07;;
1719;SDS011;857;52.872;9.692;2022-09-09T11:25:50;2.10;;;1.40;;
1719;SDS011;857;52.872;9.692;2022-09-09T11:28:26;3.70;;;2.30;;
1719;SDS011;857;52.872;9.692;2022-09-09T11:31:01;3.83;;;3.50;;
1719;SDS011;857;52.872;9.692;2022-09-09T11:33:42;4.90;;;3.13;;
1719;SDS011;857;52.872;9.692;2022-09-09T11:36:30;4.17;;;2.27;;
1719;SDS011;857;52.872;9.692;2022-09-09T11:39:01;2.83;;;2.50;;
1719;SDS011;857;52.872;9.692;2022-09-09T11:41:33;2.43;;;2.23;;
1719;SDS011;857;52.872;9.692;2022-09-09T11:44:08;3.03;;;2.60;;
1719;SDS011;857;52.872;9.692;2022-09-09T11:46:38;1.70;;;1.60;;
1719;SDS011;857;52.872;9.692;2022-09-09T11:49:21;1.70;;;1.60;;
1719;SDS011;857;52.872;9.692;2022-09-09T11:51:52;1.47;;;1.37;;
1719;SDS011;857;52.872;9.692;2022-09-09T11:54:30;4.13;;;2.90;;
1719;SDS011;857;52.872;9.692;2022-09-09T11:56:58;3.00;;;2.80;;
1719;SDS011;857;52.872;9.692;2022-09-09T11:59:26;5.63;;;2.77;;
1719;SDS011;857;52.872;9.692;2022-09-09T12:01:56;2.70;;;2.00;;
1719;SDS011;857;52.872;9.692;2022-09-09T12:04:31;2.93;;;2.17;;
1719;SDS011;857;52.872;9.692;2022-09-09T12:07:00;6.80;;;3.30;;
1719;SDS011;857;52.872;9.692;2022-09-09T12:09:31;1.50;;;1.40;;
1719;SDS011;857;52.872;9.692;2022-09-09T12:12:07;3.50;;;2.57;;
1719;SDS011;857;52.872;9.692;2022-09-09T12:14:35;2.90;;;2.27;;
1719;SDS011;857;52.872;9.692;2022-09-09T12:17:19;2.43;;;1.70;;
1719;SDS011;857;52.872;9.692;2022-09-09T12:19:59;1.30;;;1.20;;
1719;SDS011;857;52.872;9.692;2022-09-09T12:22:31;4.60;;;2.50;;
1719;SDS011;857;52.872;9.692;2022-09-09T12:25:04;3.63;;;2.20;;
1719;SDS011;857;52.872;9.692;2022-09-09T12:27:40;1.50;;;1.40;;
1719;SDS011;857;52.872;9.692;2022-09-09T12:30:15;3.80;;;2.63;;
1719;SDS011;857;52.872;9.692;2022-09-09T12:32:47;5.23;;;2.37;;
1719;SDS011;857;52.872;9.692;2022-09-09T12:35:28;2.77;;;2.10;;
1719;SDS011;857;52.872;9.692;2022-09-09T12:38:02;2.50;;;2.30;;
1719;SDS011;857;52.872;9.692;2022-09-09T12:40:38;1.70;;;1.60;;
1719;SDS011;857;52.872;9.692;2022-09-09T12:43:17;2.87;;;1.90;;
1719;SDS011;857;52.872;9.692;2022-09-09T12:46:08;4.00;;;2.20;;
1719;SDS011;857;52.872;9.692;2022-09-09T12:48:42;4.57;;;3.00;;
1719;SDS011;857;52.872;9.692;2022-09-09T12:51:16;3.30;;;2.73;;
1719;SDS011;857;52.872;9.692;2022-09-09T12:53:45;4.50;;;2.50;;
1719;SDS011;857;52.872;9.692;2022-09-09T12:56:18;5.70;;;2.60;;
1719;SDS011;857;52.872;9.692;2022-09-09T12:58:47;3.13;;;2.43;;
1719;SDS011;857;52.872;9.692;2022-09-09T13:01:22;2.80;;;2.20;;
1719;SDS011;857;52.872;9.692;2022-09-09T13:03:52;5.23;;;2.80;;
1719;SDS011;857;52.872;9.692;2022-09-09T13:06:21;2.67;;;1.70;;
1719;SDS011;857;52.872;9.692;2022-09-09T13:08:49;5.40;;;2.53;;
1719;SDS011;857;52.872;9.692;2022-09-09T13:11:18;4.90;;;2.40;;
1719;SDS011;857;52.872;9.692;2022-09-09T13:13:53;2.10;;;1.47;;
1719;SDS011;857;52.872;9.692;2022-09-09T13:16:22;1.83;;;1.73;;
1719;SDS011;857;52.872;9.692;2022-09-09T13:18:52;1.30;;;1.20;;
1719;SDS011;857;52.872;9.692;2022-09-09T13:21:30;3.87;;;2.30;;
1719;SDS011;857;52.872;9.692;2022-09-09T13:23:58;2.37;;;1.80;;
1719;SDS011;857;52.872;9.692;2022-09-09T13:26:28;1.53;;;1.43;;
1719;SDS011;857;52.872;9.692;2022-09-09T13:29:07;2.00;;;1.87;;
1719;SDS011;857;52.872;9.692;2022-09-09T13:31:36;1.70;;;1.60;;
1719;SDS011;857;52.872;9.692;2022-09-09T13:34:13;2.67;;;1.77;;
1719;SDS011;857;52.872;9.692;2022-09-09T13:36:41;2.63;;;1.67;;
1719;SDS011;857;52.872;9.692;2022-09-09T13:39:13;2.83;;;1.63;;
1719;SDS011;857;52.872;9.692;2022-09-09T13:41:43;1.50;;;1.40;;
1719;SDS011;857;52.872;9.692;2022-09-09T13:44:14;3.00;;;2.00;;
1719;SDS011;857;52.872;9.692;2022-09-09T13:46:44;1.53;;;1.43;;
1719;SDS011;857;52.872;9.692;2022-09-09T13:49:21;1.23;;;1.20;;
1719;SDS011;857;52.872;9.692;2022-09-09T13:51:50;5.00;;;1.80;;
1719;SDS011;857;52.872;9.692;2022-09-09T13:54:19;1.93;;;1.63;;
1719;SDS011;857;52.872;9.692;2022-09-09T13:56:48;1.77;;;1.67;;
1719;SDS011;857;52.872;9.692;2022-09-09T13:59:17;2.50;;;1.43;;
1719;SDS011;857;52.872;9.692;2022-09-09T14:01:49;2.70;;;2.00;;
1719;SDS011;857;52.872;9.692;2022-09-09T14:04:18;2.43;;;1.80;;
1719;SDS011;857;52.872;9.692;2022-09-09T14:06:48;1.33;;;1.10;;
1719;SDS011;857;52.872;9.692;2022-09-09T14:09:17;1.40;;;1.30;;
1719;SDS011;857;52.872;9.692;2022-09-09T14:11:45;1.20;;;1.20;;
1719;SDS011;857;52.872;9.692;2022-09-09T14:14:12;2.20;;;1.30;;
1719;SDS011;857;52.872;9.692;2022-09-09T14:16:41;2.50;;;1.70;;
1719;SDS011;857;52.872;9.692;2022-09-09T14:19:09;2.70;;;1.70;;
1719;SDS011;857;52.872;9.692;2022-09-09T14:21:42;1.40;;;1.30;;
1719;SDS011;857;52.872;9.692;2022-09-09T14:24:35;3.23;;;2.10;;
1719;SDS011;857;52.872;9.692;2022-09-09T14:30:49;1.20;;;1.10;;
1719;SDS011;857;52.872;9.692;2022-09-09T14:33:19;2.67;;;1.23;;
1719;SDS011;857;52.872;9.692;2022-09-09T14:46:16;1.80;;;1.10;;
1719;SDS011;857;52.872;9.692;2022-09-09T14:48:44;1.83;;;1.10;;
1719;SDS011;857;52.872;9.692;2022-09-09T14:51:14;1.00;;;1.00;;
1719;SDS011;857;52.872;9.692;2022-09-09T14:53:43;2.10;;;1.20;;
1719;SDS011;857;52.872;9.692;2022-09-09T14:56:11;1.10;;;1.00;;
1719;SDS011;857;52.872;9.692;2022-09-09T14:58:39;3.63;;;1.20;;
1719;SDS011;857;52.872;9.692;2022-09-09T15:01:08;2.70;;;1.53;;
1719;SDS011;857;52.872;9.692;2022-09-09T15:03:38;1.37;;;1.27;;
1719;SDS011;857;52.872;9.692;2022-09-09T15:06:06;1.00;;;1.00;;
1719;SDS011;857;52.872;9.692;2022-09-09T15:08:35;2.23;;;1.80;;
1719;SDS011;857;52.872;9.692;2022-09-09T15:11:05;1.53;;;1.20;;
1719;SDS011;857;52.872;9.692;2022-09-09T15:13:39;1.63;;;1.47;;
1719;SDS011;857;52.872;9.692;2022-09-09T15:16:09;3.77;;;2.23;;
1719;SDS011;857;52.872;9.692;2022-09-09T15:18:38;3.17;;;2.50;;
1719;SDS011;857;52.872;9.692;2022-09-09T15:21:08;4.80;;;2.30;;
1719;SDS011;857;52.872;9.692;2022-09-09T15:23:36;2.83;;;2.33;;
1719;SDS011;857;52.872;9.692;2022-09-09T15:26:04;1.50;;;1.40;;
1719;SDS011;857;52.872;9.692;2022-09-09T15:28:32;4.23;;;2.17;;
1719;SDS011;857;52.872;9.692;2022-09-09T15:31:04;4.20;;;2.20;;
1719;SDS011;857;52.872;9.692;2022-09-09T15:33:33;1.33;;;1.23;;
1719;SDS011;857;52.872;9.692;2022-09-09T15:36:13;1.30;;;1.20;;
1719;SDS011;857;52.872;9.692;2022-09-09T15:38:41;5.37;;;2.30;;
1719;SDS011;857;52.872;9.692;2022-09-09T15:41:09;1.30;;;1.20;;
1719;SDS011;857;52.872;9.692;2022-09-09T15:43:38;2.53;;;1.77;;
1719;SDS011;857;52.872;9.692;2022-09-09T15:46:12;2.00;;;1.77;;
1719;SDS011;857;52.872;9.692;2022-09-09T15:48:49;2.90;;;2.60;;
1719;SDS011;857;52.872;9.692;2022-09-09T15:51:27;1.33;;;1.23;;
1719;SDS011;857;52.872;9.692;2022-09-09T15:53:56;3.67;;;2.37;;
1719;SDS011;857;52.872;9.692;2022-09-09T15:56:24;3.43;;;2.17;;
1719;SDS011;857;52.872;9.692;2022-09-09T15:58:52;1.40;;;1.30;;
1719;SDS011;857;52.872;9.692;2022-09-09T16:01:20;2.73;;;2.03;;
1719;SDS011;857;52.872;9.692;2022-09-09T16:03:48;4.00;;;2.27;;
1719;SDS011;857;52.872;9.692;2022-09-09T16:06:17;3.03;;;2.70;;
1719;SDS011;857;52.872;9.692;2022-09-09T16:08:49;3.10;;;2.80;;
1719;SDS011;857;52.872;9.692;2022-09-09T16:11:18;5.33;;;3.13;;
1719;SDS011;857;52.872;9.692;2022-09-09T16:13:46;4.00;;;3.10;;